Weather reports worldwide

Advertisment
East malling, United Kingdom (99008): temperature & dewpoint: 06.12.2019 15:00:00 - 12.12.2019 15:00:00 (GMT)East malling, United Kingdom (99008): temperature -20cm: 06.12.2019 15:00:00 - 12.12.2019 15:00:00 (GMT)East malling, United Kingdom (99008): wind speed & gusts: 06.12.2019 15:00:00 - 12.12.2019 15:00:00 (GMT)East malling, United Kingdom (99008): wind direction: 06.12.2019 15:00:00 - 12.12.2019 15:00:00 (GMT)East malling, United Kingdom (99008): reduced air pressure: 06.12.2019 15:00:00 - 12.12.2019 15:00:00 (GMT)East malling, United Kingdom (99008): sunshine duration: 06.12.2019 15:00:00 - 12.12.2019 15:00:00 (GMT)East malling, United Kingdom (99008): precipitation: 06.12.2019 15:00:00 - 12.12.2019 15:00:00 (GMT)
Date & Time tt [°C] td [°C] tt -20cm [°C] ff [km/h] ff [kn] fx [km/h] fx [kn] dd ppp [hPa] sd [min] rr [mm]
12.12.2019 15:00:00 8,0 8,0 - 18 10 - - S 983,9 0 0,6
12.12.2019 14:00:00 8,1 8,1 - 24 13 - - S 985,9 0 0,2
12.12.2019 13:00:00 7,6 7,6 - 24 13 - - S 987,8 0 0,2
12.12.2019 12:00:00 7,0 7,0 - 22 12 - - S 990,0 0 0,2
12.12.2019 11:00:00 7,0 6,5 - 24 13 - - S 992,1 0 0,2
12.12.2019 10:00:00 5,5 5,4 - 18 10 - - S 994,6 18 0,2
12.12.2019 09:00:00 3,9 3,9 4,7 11 6 - - S 996,4 18 0,0
12.12.2019 08:00:00 -0,8 -0,8 - 0 0 - - N 998,2 0 0,0
12.12.2019 07:00:00 -1,6 -1,6 - 0 0 - - N 999,5 0 0,0
12.12.2019 06:00:00 -1,6 -1,6 - 0 0 - - N 1000,6 0 0,0
12.12.2019 05:00:00 -0,8 -0,8 - 5 3 - - ESE 1001,6 0 0,0
12.12.2019 04:00:00 0,1 0,1 - 4 2 - - SE 1002,6 0 0,0
12.12.2019 03:00:00 0,5 0,5 - 8 4 - - SW 1003,2 0 0,0
12.12.2019 02:00:00 0,9 0,8 - 9 5 - - SW 1003,4 0 0,0
12.12.2019 01:00:00 0,9 0,9 - 11 6 - - SW 1003,8 0 0,0
12.12.2019 00:00:00 1,1 0,8 - 11 6 - - SW 1003,8 - 0,0
11.12.2019 23:00:00 1,5 1,2 - 13 7 - - SSW 1003,6 0 0,0
11.12.2019 22:00:00 2,8 1,7 - 9 5 - - WSW 1003,4 0 0,0
11.12.2019 21:00:00 3,6 2,5 - 9 5 - - WSW 1003,2 0 0,0
11.12.2019 20:00:00 3,9 3,1 - 9 5 - - WSW 1002,8 0 0,0
11.12.2019 19:00:00 4,3 3,5 - 9 5 - - WSW 1002,1 0 0,0
11.12.2019 18:00:00 3,9 3,5 - 8 4 - - SW 1002,1 0 0,0
11.12.2019 17:00:00 5,1 3,7 - 11 6 - - SW 1001,9 0 0,2
11.12.2019 16:00:00 5,7 4,5 - 13 7 - - SSW 1001,8 0 0,2
11.12.2019 15:00:00 6,0 4,6 - 13 7 - - SSW 1002,4 0 1,2
11.12.2019 14:00:00 7,3 3,2 - 16 9 - - SW 1002,8 30 0,0
11.12.2019 13:00:00 8,0 4,2 - 15 8 - - SW 1003,6 36 0,0
11.12.2019 12:00:00 7,4 4,8 - 13 7 - - SSW 1004,8 60 0,0
11.12.2019 11:00:00 6,5 4,5 - 8 4 - - S 1006,1 60 0,0
11.12.2019 10:00:00 2,6 2,6 - 4 2 - - E 1007,2 6 0,0
11.12.2019 09:00:00 2,2 2,2 6,2 2 1 - - SE 1007,7 36 0,0
11.12.2019 08:00:00 1,6 1,5 - 5 3 - - E 1008,0 0 0,0
11.12.2019 07:00:00 2,8 2,1 - 5 3 - - SSW 1008,3 0 0,0
11.12.2019 06:00:00 3,2 2,6 - 9 5 - - SW 1008,5 0 0,0
11.12.2019 05:00:00 4,5 3,6 - 11 6 - - SW 1008,8 0 0,0
11.12.2019 04:00:00 5,0 4,1 - 13 7 - - SW 1009,0 0 0,0
11.12.2019 03:00:00 5,2 4,4 - 8 4 - - SW 1009,2 0 0,0
11.12.2019 02:00:00 6,6 4,2 - 8 4 - - SW 1009,3 0 0,0
11.12.2019 01:00:00 7,5 4,2 - 13 7 - - W 1009,0 0 0,0
11.12.2019 00:00:00 8,4 5,5 - 15 8 - - WSW 1008,4 - 0,0
10.12.2019 23:00:00 8,7 6,5 - 15 8 - - WSW 1008,1 0 0,4
10.12.2019 22:00:00 9,1 7,8 - 22 12 57 31 W 1006,9 0 1,6
10.12.2019 21:00:00 10,9 10,8 - 26 14 61 33 SW 1005,5 0 0,6
10.12.2019 20:00:00 10,6 10,4 - 29 16 59 32 SSW 1005,6 0 0,6
10.12.2019 19:00:00 10,2 9,9 - 29 16 61 33 SSW 1006,4 0 0,2
10.12.2019 18:00:00 10,4 9,5 - 31 17 68 37 SSW 1007,1 0 0,0
10.12.2019 17:00:00 10,1 9,1 - 39 21 63 34 SSW 1008,0 0 0,2
10.12.2019 16:00:00 9,5 9,3 - 31 17 57 31 SSW 1009,1 0 0,2
10.12.2019 15:00:00 8,9 8,7 - 28 15 50 27 SSW 1010,9 0 0,2
10.12.2019 14:00:00 8,7 7,9 - 26 14 48 26 SSW 1012,3 0 0,2
10.12.2019 13:00:00 8,9 7,1 - 31 17 57 31 SSW 1013,7 0 0,2
10.12.2019 12:00:00 9,2 6,6 - 29 16 52 28 SSW 1015,5 0 0,2
10.12.2019 11:00:00 9,4 5,9 - 28 15 54 29 SSW 1016,8 0 0,0
10.12.2019 10:00:00 8,7 5,7 - 22 12 - - SSW 1018,4 0 0,0
10.12.2019 09:00:00 6,7 4,5 5,0 18 10 - - S 1019,3 18 0,0
10.12.2019 08:00:00 5,0 3,1 - 18 10 - - S 1020,6 0 0,0
10.12.2019 07:00:00 3,1 3,0 - 15 8 - - S 1021,3 0 0,0
10.12.2019 06:00:00 -1,6 -1,6 - 2 1 - - S 1022,8 0 0,0
10.12.2019 05:00:00 -2,1 -2,1 - 4 2 - - W 1024,2 0 0,0
10.12.2019 04:00:00 -2,4 -2,7 - 4 2 - - W 1024,9 0 0,0
10.12.2019 03:00:00 -0,8 -0,9 - 4 2 - - SW 1025,2 0 0,0
10.12.2019 02:00:00 -1,8 -2,1 - 2 1 - - SW 1025,3 0 0,0
10.12.2019 01:00:00 -2,1 -2,6 - 5 3 - - SSE 1025,3 0 0,0
10.12.2019 00:00:00 -1,3 -2,1 - 5 3 - - ESE 1025,6 - 0,0
09.12.2019 23:00:00 -0,1 -1,1 - 9 5 - - S 1025,5 0 0,0
09.12.2019 22:00:00 -0,3 -2,1 - 5 3 - - SW 1025,4 0 0,0
09.12.2019 21:00:00 3,4 -0,6 - 8 4 - - W 1024,9 0 0,0
09.12.2019 20:00:00 4,2 -0,5 - 9 5 - - WNW 1024,0 0 0,0
09.12.2019 19:00:00 4,4 -1,1 - 8 4 - - W 1023,1 0 0,0
09.12.2019 18:00:00 5,5 -0,8 - 8 4 - - NNW 1021,5 0 0,0
09.12.2019 17:00:00 6,3 -0,7 - 11 6 - - NNW 1020,0 0 0,0
09.12.2019 16:00:00 7,1 -0,6 - 16 9 - - NNW 1018,6 30 0,0
09.12.2019 15:00:00 8,3 -0,7 - 21 11 - - NNW 1016,7 54 0,0
09.12.2019 14:00:00 8,5 -1,2 - 28 15 50 27 NNW 1014,9 48 0,0
09.12.2019 13:00:00 8,8 -0,5 - 31 17 57 31 NNW 1012,9 54 0,0
09.12.2019 12:00:00 9,0 1,3 - 31 17 61 33 NNW 1011,2 60 0,0
09.12.2019 11:00:00 8,6 1,7 - 31 17 61 33 NNW 1009,0 42 0,0
09.12.2019 10:00:00 8,3 2,6 - 31 17 52 28 NNW 1006,7 30 0,0
09.12.2019 09:00:00 8,1 3,2 6,7 31 17 59 32 NNW 1004,1 6 0,0
09.12.2019 08:00:00 8,3 4,2 - 31 17 55 30 NW 1001,4 0 0,0
09.12.2019 07:00:00 7,8 4,6 - 29 16 54 29 NNW 998,6 0 0,0
09.12.2019 06:00:00 7,5 6,0 - 16 9 - - WNW 995,9 0 0,2
09.12.2019 05:00:00 7,7 4,8 - 15 8 - - W 994,0 0 0,0
09.12.2019 04:00:00 7,7 3,9 - 16 9 - - W 993,4 0 0,0
09.12.2019 03:00:00 7,6 3,5 - 21 11 52 28 W 992,9 0 0,0
09.12.2019 02:00:00 8,2 4,8 - 26 14 63 34 W 991,8 0 0,2
09.12.2019 01:00:00 7,7 5,7 - 22 12 - - WSW 991,0 0 0,4
09.12.2019 00:00:00 7,3 4,3 - 21 11 - - SW 992,7 - 0,0
08.12.2019 23:00:00 7,2 3,1 - 18 10 - - SW 994,2 0 0,0
08.12.2019 22:00:00 6,6 2,6 - 21 11 46 25 SW 995,8 0 0,0
08.12.2019 21:00:00 7,1 1,9 - 28 15 46 25 WSW 996,6 0 0,0
08.12.2019 20:00:00 7,3 2,8 - 21 11 - - WSW 997,7 0 0,0
08.12.2019 19:00:00 7,2 2,7 - 26 14 46 25 WSW 998,5 0 0,0
08.12.2019 18:00:00 6,6 3,1 - 18 10 - - WSW 998,8 0 0,0
08.12.2019 17:00:00 7,4 2,7 - 24 13 57 31 WSW 999,2 0 0,0
08.12.2019 16:00:00 9,6 2,5 - 28 15 46 25 WSW 999,4 6 0,0
08.12.2019 15:00:00 10,2 3,2 - 18 10 - - WSW 999,7 6 0,0
08.12.2019 14:00:00 10,5 2,6 - 24 13 50 27 W 1000,2 12 0,0
08.12.2019 13:00:00 10,9 3,9 - 28 15 54 29 WSW 1000,9 54 0,0
08.12.2019 12:00:00 10,9 4,7 - 28 15 59 32 WSW 1001,3 42 0,0
08.12.2019 11:00:00 10,4 5,0 - 18 10 46 25 W 1002,3 42 0,0
08.12.2019 10:00:00 10,1 5,3 - 24 13 46 25 WSW 1002,2 36 0,0
08.12.2019 09:00:00 9,7 5,6 7,7 22 12 - - WSW 1002,0 6 0,0
08.12.2019 08:00:00 10,3 5,3 - 24 13 48 26 W 1001,1 0 0,0
08.12.2019 07:00:00 11,4 7,2 - 26 14 46 25 W 1000,4 0 0,0
08.12.2019 06:00:00 11,7 11,3 - 24 13 46 25 SW 999,4 0 0,0
08.12.2019 05:00:00 10,7 10,2 - 28 15 61 33 SW 1000,4 0 0,2
08.12.2019 04:00:00 10,3 9,2 - 31 17 55 30 SW 1001,7 0 1,0
08.12.2019 03:00:00 10,1 9,1 - 28 15 50 27 SSW 1002,9 0 1,6
08.12.2019 02:00:00 10,6 8,7 - 31 17 61 33 SW 1004,0 0 0,0
08.12.2019 01:00:00 10,8 8,7 - 29 16 55 30 SW 1005,4 0 0,0
08.12.2019 00:00:00 10,7 8,3 - 29 16 57 31 SW 1006,9 - 0,0
07.12.2019 23:00:00 10,9 7,5 - 26 14 61 33 SW 1008,4 0 0,0
07.12.2019 22:00:00 10,9 7,9 - 29 16 46 25 SW 1009,5 0 0,0
07.12.2019 21:00:00 10,0 7,1 - 18 10 - - SW 1010,7 0 0,0
07.12.2019 20:00:00 9,7 6,9 - 15 8 - - SW 1011,8 0 0,0
07.12.2019 19:00:00 9,7 6,2 - 15 8 - - SW 1012,5 0 0,0
07.12.2019 18:00:00 9,8 6,0 - 21 11 - - SW 1013,2 0 0,0
07.12.2019 17:00:00 9,4 5,6 - 16 9 - - SW 1013,5 0 0,0
07.12.2019 16:00:00 9,3 4,9 - 11 6 - - SW 1013,9 54 0,0
07.12.2019 15:00:00 10,3 5,2 - 13 7 - - SW 1013,7 54 0,0
07.12.2019 14:00:00 10,2 4,9 - 15 8 - - WSW 1014,0 6 0,0
07.12.2019 13:00:00 10,3 5,0 - 15 8 - - WSW 1014,5 0 0,0
07.12.2019 12:00:00 9,9 6,0 - 11 6 - - WSW 1015,0 6 0,0
07.12.2019 11:00:00 8,8 6,2 - 15 8 - - WSW 1015,0 0 0,0
07.12.2019 10:00:00 8,0 5,8 - 13 7 - - SW 1015,2 0 0,0
07.12.2019 09:00:00 7,6 5,7 6,7 13 7 - - WSW 1014,9 12 0,0
07.12.2019 08:00:00 7,1 5,1 - 15 8 - - SW 1014,3 0 0,0
07.12.2019 07:00:00 8,1 5,6 - 11 6 - - WSW 1014,0 0 0,0
07.12.2019 06:00:00 8,4 5,7 - 15 8 - - SW 1013,0 0 0,0
07.12.2019 05:00:00 8,3 5,6 - 9 5 - - WSW 1012,2 0 0,0
07.12.2019 04:00:00 8,7 5,8 - 15 8 - - WSW 1011,8 0 0,0
07.12.2019 03:00:00 8,6 5,7 - 16 9 - - WSW 1011,5 0 0,0
07.12.2019 02:00:00 8,4 5,6 - 13 7 - - WSW 1011,1 0 0,0
07.12.2019 01:00:00 7,4 5,3 - 11 6 - - WSW 1010,0 0 0,0
07.12.2019 00:00:00 7,9 5,6 - 11 6 - - WSW 1009,8 - 0,0
06.12.2019 23:00:00 8,5 5,9 - 16 9 - - WSW 1009,2 0 0,0
06.12.2019 22:00:00 9,7 5,7 - 15 8 - - W 1008,2 0 0,0
06.12.2019 21:00:00 10,4 6,5 - 21 11 - - W 1007,4 0 0,0
06.12.2019 20:00:00 10,2 6,5 - 21 11 - - W 1006,1 0 0,0
06.12.2019 19:00:00 10,7 6,3 - 21 11 - - W 1005,0 0 0,0
06.12.2019 18:00:00 11,4 7,7 - 24 13 - - W 1004,1 0 0,0
06.12.2019 17:00:00 11,8 7,8 - 28 15 52 28 W 1002,6 0 0,0
06.12.2019 16:00:00 11,6 10,5 - 18 10 - - SW 1002,0 6 0,4
06.12.2019 15:00:00 12,5 9,4 - 21 11 46 25 WSW 1002,8 0 0,0

tt = temperature
td = dewpoint
tt -20cm = temperature -20cm
ff = wind speed
fx = gusts
dd = wind direction
ppp = reduced air pressure
sd = sunshine duration
rr = precipitation

Next stations